Kettle Falls, WA (99141)

5:46 AM PDT on September 21, 2014 (GMT -0700)
ECHO PEAK - W6SQ | Change Station
CLOSE
Current Station
Personal Weather Station
Location: Colville, WA
Elevation: 1918 ft
Nearby Weather Stations

Elev 1918 ft 48.66 °N, 117.94 °W | Updated 7 seconds ago

Clear
Clear
47.1 °F
Feels Like 47 °F
N
0.1
Wind Variable Wind from North
Gusts 1.6 mph

Today
High -- | Low -- °F
--% Chance of Precip.
Yesterday
High -- | Low -- °F
Precip. -- in
6:37 AM 6:52 PM
Waning Crescent, 7% visible
Pressure 29.99 in
Visibility 10.0 miles
Clouds Clear
Windchill 47 °F
Dew Point 44 °F
Humidity 87%
Rainfall 0.00 in
Snow Depth 0 in , 1 in , 0 in
UV 0.0 out of 12
Pollen 7.90 out of 12
PM2.5 Moderate
Flu Activity Not available.
METAR KDEW 211153Z AUTO 02010KT 10SM CLR 16/07 A3003 RMK AO2 SLP156 T01610067 10183 20144 56006

More Conditions Fewer Conditions

Pressure 29.99 in
Visibility 10.0 miles
Clouds Clear
Windchill 47 °F
Dew Point 44 °F
Humidity 87%
Rainfall 0.00 in
Snow Depth 0 in , 1 in , 0 in
UV 0.0 out of 12
Pollen 7.90 out of 12
PM2.5 Moderate
Flu Activity Not available.
METAR KDEW 211153Z AUTO 02010KT 10SM CLR 16/07 A3003 RMK AO2 SLP156 T01610067 10183 20144 56006

More Conditions Fewer Conditions

10-Day Weather Forecast

Almanac

Astronomy

Sep. 21, 2014 Rise Set
Actual Time 6:37 AM PDT 6:52 PM PDT
Civil Twilight 6:06 AM PDT 7:23 PM PDT
Nautical Twilight 5:29 AM PDT 8:00 PM PDT
Astronomical Twilight 4:50 AM PDT 8:38 PM PDT
Moon 4:06 AM PDT 5:37 PM PDT
Length of Visible Light 13h 17m
Length of Day
12h 14m
Tomorrow will be 3m 32s shorter.
Waning Crescent, 7% of the Moon is Illuminated
Today
Waning Crescent
Sep 24
New
Oct 1
First Quarter
Oct 8
Full
Oct 15
Last Quarter

Today's Extremes

State Highs State Lows

Community

WunderPhotos

Upload Photos

1,755,127 photos uploaded!

Nearby

Air Quality

  Air Quality AQ Index Pollutant
Yesterday Good
PM10
Yesterday Good
OZONE
Current Moderate
PM2.5
Sunday Good
PM10
Sunday Good
OZONE
Monday Good
PM10
Monday Good
OZONE

Snow Depth

Station Depth Elevation
White Pass E.S. 0 in 4500 ft
Moses Mountain 1 in 5300 ft
Spirit Lake 0 in 3120 ft
Morse Lake 0 in 5400 ft
Stevens Pass 0 in 4070 ft

Earthquake Activity

City Distance Mag. Time & Date
No recent earthquake activity has been reported nearby.
Minimum magnitude displayed is 2.5.

Coastal Water Temperatures

Place Temperature
No Stations Reporting

Nearby Weather Stations